No particular awareness of the weather is required.    There are no Weather-warnings


Meteo18 Weather Cam more information Meteo18 Weather Cam


Thunder radar more information blitzortung!


Rain radar more information rain snow radar


Visit our other weather sites:

Template documentation
and downloads

And another site



Weather Underground History page Text

Daily Summary for January 25, 2016 Units:  Metric    English   Both
« Previous Day
Next Day »
Daily Weekly Monthly Yearly Custom
  High: Low: Average:
Temperature: 13.8 °C -0.3 °C 5.6 °C
Dew Point: 9.4 °C -0.7 °C 4.1 °C
Humidity: 99 % 70 % 91 %
Wind Speed: 3.2 km/h 0.0 km/h 0.1 km/h
Wind Gust: 6.4 km/h - -
Wind:- - SW
Pressure: 1029.7 hPa 1026.6 hPa -
Precipitation: 0.3 mm    
Historical Graphs
 
 
Tabular Data for January 25, 2016
Time Temperature Dew Point Pressure Wind Wind Speed Wind Gust Humidity Rainfall Rate (Hourly)
00:02 2.7 °C 2.4 °C 1029.7 hPa Calm     98 % 0.0 mm
00:12 2.6 °C 2.3 °C 1029.3 hPa Calm     98 % 0.0 mm
00:17 2.7 °C 2.4 °C 1029.3 hPa Calm     98 % 0.0 mm
00:22 2.5 °C 2.2 °C 1029.3 hPa Calm     98 % 0.0 mm
00:27 2.4 °C 2.1 °C 1029.3 hPa Calm     98 % 0.0 mm
00:32 2.5 °C 2.2 °C 1029.3 hPa Calm     98 % 0.0 mm
00:37 2.4 °C 2.1 °C 1029.3 hPa Calm     98 % 0.0 mm
00:42 2.3 °C 2.0 °C 1029.3 hPa Calm     98 % 0.0 mm
00:47 2.2 °C 1.9 °C 1029.0 hPa Calm     98 % 0.0 mm
00:52 2.3 °C 2.0 °C 1029.0 hPa Calm     98 % 0.0 mm
00:57 2.4 °C 2.1 °C 1029.0 hPa Calm     98 % 0.0 mm
01:02 2.6 °C 2.3 °C 1029.0 hPa Calm     98 % 0.0 mm
01:12 2.7 °C 2.4 °C 1029.0 hPa Calm   3.2 km/h 98 % 0.0 mm
01:22 2.9 °C 2.6 °C 1029.0 hPa Calm   1.6 km/h 98 % 0.0 mm
01:32 3.3 °C 3.2 °C 1028.7 hPa Calm   1.6 km/h 99 % 0.0 mm
01:37 3.4 °C 3.3 °C 1028.7 hPa Calm   1.6 km/h 99 % 0.0 mm
01:47 2.9 °C 2.6 °C 1028.3 hPa Calm     98 % 0.0 mm
01:52 2.6 °C 2.3 °C 1028.3 hPa Calm     98 % 0.0 mm
01:57 2.5 °C 2.1 °C 1028.3 hPa Calm     97 % 0.0 mm
02:02 2.7 °C 2.4 °C 1028.3 hPa Calm     98 % 0.0 mm
02:12 2.5 °C 2.1 °C 1028.3 hPa Calm     97 % 0.0 mm
02:17 2.4 °C 2.1 °C 1028.3 hPa Calm     98 % 0.0 mm
02:22 2.5 °C 2.2 °C 1028.3 hPa Calm     98 % 0.0 mm
02:32 2.6 °C 2.3 °C 1028.3 hPa Calm   1.6 km/h 98 % 0.0 mm
02:37 2.7 °C 2.4 °C 1028.3 hPa Calm   1.6 km/h 98 % 0.0 mm
02:42 2.5 °C 2.1 °C 1028.3 hPa Calm     97 % 0.0 mm
02:47 2.3 °C 1.9 °C 1028.3 hPa Calm     97 % 0.0 mm
02:57 2.2 °C 1.8 °C 1028.3 hPa Calm     97 % 0.0 mm
03:02 2.1 °C 1.7 °C 1028.3 hPa Calm     97 % 0.0 mm
03:12 2.0 °C 1.6 °C 1028.0 hPa Calm     97 % 0.0 mm
03:17 1.9 °C 1.5 °C 1028.0 hPa Calm     97 % 0.0 mm
03:22 1.8 °C 1.4 °C 1028.0 hPa Calm     97 % 0.0 mm
03:27 1.8 °C 1.4 °C 1028.0 hPa Calm     97 % 0.0 mm
03:32 1.8 °C 1.4 °C 1028.0 hPa Calm     97 % 0.0 mm
03:37 1.8 °C 1.4 °C 1028.0 hPa Calm     97 % 0.0 mm
03:42 1.6 °C 1.2 °C 1028.0 hPa Calm     97 % 0.0 mm
03:47 1.6 °C 1.2 °C 1028.3 hPa Calm     97 % 0.0 mm
03:52 1.6 °C 1.2 °C 1028.0 hPa Calm     97 % 0.0 mm
03:57 1.6 °C 1.2 °C 1028.0 hPa Calm   1.6 km/h 97 % 0.0 mm
04:02 1.5 °C 1.1 °C 1028.0 hPa Calm   1.6 km/h 97 % 0.0 mm
04:07 1.3 °C 0.9 °C 1028.0 hPa Calm     97 % 0.0 mm
04:12 1.2 °C 0.8 °C 1028.0 hPa Calm     97 % 0.0 mm
04:17 1.4 °C 1.0 °C 1028.0 hPa Calm     97 % 0.0 mm
04:22 1.3 °C 0.9 °C 1027.7 hPa Calm     97 % 0.0 mm
04:32 1.3 °C 0.9 °C 1027.7 hPa Calm     97 % 0.0 mm
04:37 1.2 °C 0.8 °C 1027.7 hPa Calm     97 % 0.0 mm
04:42 1.2 °C 0.8 °C 1027.7 hPa Calm     97 % 0.0 mm
04:47 1.2 °C 0.8 °C 1027.7 hPa Calm     97 % 0.0 mm
04:52 1.2 °C 0.8 °C 1027.3 hPa Calm     97 % 0.0 mm
04:57 1.3 °C 0.9 °C 1027.3 hPa Calm     97 % 0.0 mm
05:02 1.2 °C 0.8 °C 1027.3 hPa Calm     97 % 0.0 mm
05:12 1.2 °C 0.9 °C 1027.3 hPa Calm     98 % 0.0 mm
05:17 1.4 °C 1.1 °C 1027.7 hPa Calm     98 % 0.0 mm
05:22 1.4 °C 1.1 °C 1027.7 hPa Calm     98 % 0.0 mm
05:32 1.1 °C 0.7 °C 1027.3 hPa Calm   3.2 km/h 97 % 0.3 mm
05:37 1.1 °C 0.7 °C 1027.3 hPa Calm   1.6 km/h 97 % 0.3 mm
05:42 1.1 °C 0.7 °C 1027.3 hPa Calm   1.6 km/h 97 % 0.3 mm
05:57 0.7 °C 0.3 °C 1027.7 hPa Calm     97 % 0.3 mm
06:02 0.6 °C 0.2 °C 1027.3 hPa Calm     97 % 0.3 mm
06:12 0.6 °C 0.2 °C 1027.3 hPa Calm     97 % 0.3 mm
06:17 0.7 °C 0.3 °C 1027.3 hPa Calm     97 % 0.0 mm
06:22 0.7 °C 0.3 °C 1027.3 hPa Calm     97 % 0.0 mm
06:32 0.4 °C 0.0 °C 1027.3 hPa Calm     97 % 0.0 mm
06:37 0.3 °C -0.1 °C 1027.3 hPa Calm     97 % 0.0 mm
06:42 0.4 °C 0.0 °C 1027.3 hPa Calm     97 % 0.0 mm
06:47 0.4 °C 0.1 °C 1027.3 hPa Calm     98 % 0.0 mm
06:52 0.5 °C 0.2 °C 1027.3 hPa Calm     98 % 0.0 mm
07:02 0.4 °C 0.1 °C 1027.3 hPa Calm     98 % 0.0 mm
07:12 0.5 °C 0.2 °C 1027.3 hPa Calm     98 % 0.0 mm
07:17 0.4 °C 0.1 °C 1027.3 hPa Calm     98 % 0.0 mm
07:22 0.4 °C 0.1 °C 1027.3 hPa Calm     98 % 0.0 mm
07:27 0.4 °C 0.1 °C 1027.3 hPa Calm     98 % 0.0 mm
07:32 0.3 °C -0.1 °C 1027.3 hPa Calm     97 % 0.0 mm
07:37 0.5 °C 0.2 °C 1027.3 hPa Calm   1.6 km/h 98 % 0.0 mm
07:42 0.4 °C 0.1 °C 1027.3 hPa Calm   1.6 km/h 98 % 0.0 mm
07:52 0.4 °C 0.1 °C 1027.3 hPa Calm   1.6 km/h 98 % 0.0 mm
08:02 0.3 °C 0.0 °C 1027.3 hPa Calm   1.6 km/h 98 % 0.0 mm
08:12 0.4 °C 0.1 °C 1027.3 hPa Calm     98 % 0.0 mm
08:17 0.4 °C 0.1 °C 1027.3 hPa Calm     98 % 0.0 mm
08:22 0.3 °C 0.0 °C 1027.3 hPa Calm     98 % 0.0 mm
08:32 0.2 °C -0.2 °C 1027.3 hPa Calm     97 % 0.0 mm
08:37 0.1 °C -0.3 °C 1027.3 hPa Calm     97 % 0.0 mm
08:42 0.0 °C -0.4 °C 1027.7 hPa Calm     97 % 0.0 mm
08:47 -0.1 °C -0.5 °C 1027.3 hPa Calm     97 % 0.0 mm
08:52 -0.1 °C -0.4 °C 1027.3 hPa Calm     98 % 0.0 mm
08:57 -0.1 °C -0.4 °C 1027.3 hPa Calm     98 % 0.0 mm
09:02 -0.2 °C -0.5 °C 1027.7 hPa Calm     98 % 0.0 mm
09:07 -0.3 °C -0.7 °C 1027.7 hPa Calm     97 % 0.0 mm
09:12 -0.3 °C -0.7 °C 1027.7 hPa Calm     97 % 0.0 mm
09:17 -0.2 °C -0.5 °C 1027.7 hPa Calm     98 % 0.0 mm
09:22 -0.1 °C -0.4 °C 1027.7 hPa Calm     98 % 0.0 mm
09:32 0.6 °C 0.3 °C 1027.7 hPa Calm     98 % 0.0 mm
09:37 0.7 °C 0.4 °C 1027.7 hPa Calm     98 % 0.0 mm
09:42 1.1 °C 0.8 °C 1027.7 hPa Calm     98 % 0.0 mm
09:47 1.2 °C 0.9 °C 1027.7 hPa Calm     98 % 0.0 mm
09:52 1.4 °C 1.1 °C 1027.7 hPa Calm     98 % 0.0 mm
10:02 2.2 °C 2.1 °C 1027.7 hPa Calm     99 % 0.0 mm
10:12 3.7 °C 3.6 °C 1027.7 hPa Calm     99 % 0.0 mm
10:17 4.7 °C 4.6 °C 1027.7 hPa Calm     99 % 0.0 mm
10:27 5.5 °C 5.4 °C 1027.7 hPa Calm     99 % 0.0 mm
10:32 5.4 °C 5.1 °C 1027.7 hPa Calm     98 % 0.0 mm
10:37 5.1 °C 4.2 °C 1027.7 hPa Calm     94 % 0.0 mm
10:42 4.9 °C 3.7 °C 1027.7 hPa Calm     92 % 0.0 mm
10:47 4.9 °C 3.4 °C 1027.7 hPa Calm   1.6 km/h 90 % 0.0 mm
10:52 5.1 °C 3.6 °C 1027.7 hPa Calm   1.6 km/h 90 % 0.0 mm
10:57 5.2 °C 3.7 °C 1027.7 hPa Calm   1.6 km/h 90 % 0.0 mm
11:02 5.4 °C 3.7 °C 1027.7 hPa Calm   1.6 km/h 89 % 0.0 mm
11:12 5.7 °C 3.7 °C 1028.0 hPa Calm   1.6 km/h 87 % 0.0 mm
11:17 5.9 °C 3.9 °C 1028.0 hPa Calm   1.6 km/h 87 % 0.0 mm
11:22 6.2 °C 3.9 °C 1028.0 hPa Calm   1.6 km/h 85 % 0.0 mm
11:32 6.6 °C 4.3 °C 1028.0 hPa Calm   1.6 km/h 85 % 0.0 mm
11:37 6.8 °C 4.5 °C 1028.0 hPa Calm   1.6 km/h 85 % 0.0 mm
11:42 7.0 °C 4.5 °C 1028.0 hPa SW 1.6 km/h 1.6 km/h 84 % 0.0 mm
11:47 7.2 °C 4.8 °C 1028.0 hPa Calm   3.2 km/h 85 % 0.0 mm
11:52 7.5 °C 4.8 °C 1028.0 hPa Calm   3.2 km/h 83 % 0.0 mm
11:57 7.7 °C 4.6 °C 1028.0 hPa WSW 1.6 km/h 3.2 km/h 81 % 0.0 mm
12:02 7.9 °C 5.0 °C 1028.0 hPa Calm   3.2 km/h 82 % 0.0 mm
12:07 8.0 °C 5.3 °C 1027.7 hPa WSW 1.6 km/h 3.2 km/h 83 % 0.0 mm
12:12 8.2 °C 5.3 °C 1027.7 hPa Calm   3.2 km/h 82 % 0.0 mm
12:17 8.4 °C 5.5 °C 1027.7 hPa Calm   3.2 km/h 82 % 0.0 mm
12:22 8.6 °C 5.7 °C 1027.7 hPa Calm   3.2 km/h 82 % 0.0 mm
12:27 8.8 °C 5.7 °C 1027.7 hPa Calm   3.2 km/h 81 % 0.0 mm
12:32 9.2 °C 6.3 °C 1027.7 hPa Calm   1.6 km/h 82 % 0.0 mm
12:37 9.5 °C 6.0 °C 1027.7 hPa Calm   1.6 km/h 79 % 0.0 mm
12:42 9.7 °C 6.2 °C 1027.7 hPa Calm   6.4 km/h 79 % 0.0 mm
12:47 10.0 °C 6.7 °C 1027.7 hPa Calm   6.4 km/h 80 % 0.0 mm
12:52 10.1 °C 6.4 °C 1027.7 hPa Calm   6.4 km/h 78 % 0.0 mm
12:57 10.3 °C 6.4 °C 1027.3 hPa Calm   3.2 km/h 77 % 0.0 mm
13:02 10.4 °C 6.5 °C 1027.3 hPa SW 1.6 km/h 3.2 km/h 77 % 0.0 mm
13:07 10.6 °C 6.5 °C 1027.3 hPa Calm   4.8 km/h 76 % 0.0 mm
13:12 10.8 °C 6.5 °C 1027.3 hPa SW 3.2 km/h 6.4 km/h 75 % 0.0 mm
13:17 10.8 °C 6.4 °C 1027.3 hPa SW 1.6 km/h 6.4 km/h 74 % 0.0 mm
13:22 10.9 °C 6.6 °C 1027.3 hPa Calm   6.4 km/h 75 % 0.0 mm
13:27 11.1 °C 7.0 °C 1027.3 hPa WSW 1.6 km/h 3.2 km/h 76 % 0.0 mm
13:32 11.3 °C 7.0 °C 1027.3 hPa Calm   3.2 km/h 75 % 0.0 mm
13:37 11.4 °C 7.1 °C 1027.0 hPa Calm   4.8 km/h 75 % 0.0 mm
13:42 11.6 °C 6.9 °C 1027.0 hPa Calm   4.8 km/h 73 % 0.0 mm
13:47 11.8 °C 7.1 °C 1027.0 hPa Calm   4.8 km/h 73 % 0.0 mm
13:52 11.9 °C 7.2 °C 1027.0 hPa Calm   4.8 km/h 73 % 0.0 mm
13:57 12.1 °C 7.2 °C 1027.0 hPa SW 1.6 km/h 3.2 km/h 72 % 0.0 mm
14:02 12.2 °C 7.3 °C 1027.0 hPa Calm   3.2 km/h 72 % 0.0 mm
14:07 12.2 °C 6.9 °C 1027.0 hPa Calm   4.8 km/h 70 % 0.0 mm
14:12 12.4 °C 7.3 °C 1026.6 hPa Calm   4.8 km/h 71 % 0.0 mm
14:17 12.6 °C 7.9 °C 1026.6 hPa Calm   3.2 km/h 73 % 0.0 mm
14:22 12.6 °C 7.5 °C 1026.6 hPa WSW 1.6 km/h 3.2 km/h 71 % 0.0 mm
14:27 12.8 °C 8.1 °C 1026.6 hPa SSW 1.6 km/h 3.2 km/h 73 % 0.0 mm
14:32 12.8 °C 7.7 °C 1026.6 hPa Calm   3.2 km/h 71 % 0.0 mm
14:37 12.9 °C 7.8 °C 1027.0 hPa Calm   3.2 km/h 71 % 0.0 mm
14:42 13.1 °C 8.2 °C 1027.0 hPa WSW 3.2 km/h 3.2 km/h 72 % 0.0 mm
14:47 13.2 °C 8.3 °C 1026.6 hPa SW 1.6 km/h 3.2 km/h 72 % 0.0 mm
14:52 13.3 °C 8.4 °C 1026.6 hPa Calm   3.2 km/h 72 % 0.0 mm
14:57 13.4 °C 8.5 °C 1026.6 hPa Calm   3.2 km/h 72 % 0.0 mm
15:02 13.4 °C 8.7 °C 1027.0 hPa Calm   3.2 km/h 73 % 0.0 mm
15:07 13.5 °C 8.3 °C 1026.6 hPa Calm   4.8 km/h 71 % 0.0 mm
15:12 13.6 °C 8.4 °C 1026.6 hPa Calm   4.8 km/h 71 % 0.0 mm
15:17 13.6 °C 8.4 °C 1026.6 hPa Calm   4.8 km/h 71 % 0.0 mm
15:22 13.6 °C 8.4 °C 1026.6 hPa WSW 1.6 km/h 4.8 km/h 71 % 0.0 mm
15:27 13.6 °C 9.1 °C 1026.6 hPa Calm   1.6 km/h 74 % 0.0 mm
15:32 13.7 °C 9.1 °C 1026.6 hPa WSW 1.6 km/h 1.6 km/h 74 % 0.0 mm
15:37 13.8 °C 9.0 °C 1026.6 hPa Calm   3.2 km/h 73 % 0.0 mm
15:42 13.8 °C 9.4 °C 1026.6 hPa Calm   3.2 km/h 75 % 0.0 mm
15:47 13.7 °C 9.3 °C 1026.6 hPa Calm   3.2 km/h 75 % 0.0 mm
15:57 13.3 °C 9.4 °C 1026.6 hPa Calm   1.6 km/h 77 % 0.0 mm
16:02 13.0 °C 9.3 °C 1026.6 hPa Calm   1.6 km/h 78 % 0.0 mm
16:12 12.4 °C 9.0 °C 1026.6 hPa Calm     80 % 0.0 mm
16:17 12.1 °C 9.1 °C 1026.6 hPa Calm     82 % 0.0 mm
16:22 11.9 °C 9.1 °C 1026.6 hPa Calm     83 % 0.0 mm
16:27 11.6 °C 9.0 °C 1026.6 hPa Calm     84 % 0.0 mm
16:32 11.4 °C 8.8 °C 1027.0 hPa Calm     84 % 0.0 mm
16:37 11.6 °C 8.6 °C 1027.0 hPa Calm     82 % 0.0 mm
16:42 11.8 °C 8.6 °C 1027.0 hPa Calm     81 % 0.0 mm
16:47 11.8 °C 8.5 °C 1027.0 hPa Calm   1.6 km/h 80 % 0.0 mm
16:52 11.7 °C 8.5 °C 1027.0 hPa Calm   1.6 km/h 81 % 0.0 mm
16:57 11.4 °C 8.4 °C 1027.0 hPa Calm   1.6 km/h 82 % 0.0 mm
17:12 11.2 °C 8.2 °C 1027.0 hPa Calm   1.6 km/h 82 % 0.0 mm
17:17 10.9 °C 7.9 °C 1027.0 hPa Calm   1.6 km/h 82 % 0.0 mm
17:22 10.6 °C 8.0 °C 1027.0 hPa Calm   1.6 km/h 84 % 0.0 mm
17:27 10.2 °C 7.8 °C 1027.0 hPa Calm     85 % 0.0 mm
17:32 9.8 °C 7.7 °C 1027.3 hPa Calm     87 % 0.0 mm
17:37 9.6 °C 7.7 °C 1027.3 hPa Calm     88 % 0.0 mm
17:42 9.4 °C 7.7 °C 1027.3 hPa Calm     89 % 0.0 mm
17:47 9.2 °C 7.6 °C 1027.3 hPa Calm     90 % 0.0 mm
17:52 9.1 °C 7.5 °C 1027.3 hPa Calm     90 % 0.0 mm
17:57 9.0 °C 7.3 °C 1027.3 hPa Calm     89 % 0.0 mm
18:02 8.7 °C 7.0 °C 1027.7 hPa Calm     89 % 0.0 mm
18:12 8.1 °C 6.4 °C 1027.7 hPa Calm     89 % 0.0 mm
18:17 7.9 °C 6.5 °C 1027.7 hPa Calm     91 % 0.0 mm
18:22 7.7 °C 6.3 °C 1027.7 hPa Calm     91 % 0.0 mm
18:27 7.6 °C 6.4 °C 1027.7 hPa Calm     92 % 0.0 mm
18:32 7.4 °C 6.2 °C 1027.7 hPa Calm   1.6 km/h 92 % 0.0 mm
18:37 7.4 °C 6.3 °C 1028.0 hPa Calm   1.6 km/h 93 % 0.0 mm
18:42 7.3 °C 6.2 °C 1028.0 hPa Calm   1.6 km/h 93 % 0.0 mm
18:47 7.3 °C 6.4 °C 1028.0 hPa Calm     94 % 0.0 mm
18:52 7.3 °C 6.2 °C 1028.0 hPa Calm     93 % 0.0 mm
18:57 7.2 °C 6.1 °C 1028.0 hPa Calm   1.6 km/h 93 % 0.0 mm
19:02 7.1 °C 6.0 °C 1028.0 hPa Calm   1.6 km/h 93 % 0.0 mm
19:07 6.9 °C 5.8 °C 1028.0 hPa Calm     93 % 0.0 mm
19:12 6.8 °C 5.9 °C 1028.0 hPa Calm     94 % 0.0 mm
19:17 6.9 °C 6.0 °C 1028.3 hPa Calm     94 % 0.0 mm
19:22 7.0 °C 6.1 °C 1028.3 hPa Calm     94 % 0.0 mm
19:27 7.1 °C 6.4 °C 1028.0 hPa Calm   1.6 km/h 95 % 0.0 mm
19:32 7.1 °C 6.2 °C 1028.0 hPa Calm   1.6 km/h 94 % 0.0 mm
19:37 7.1 °C 6.2 °C 1028.0 hPa Calm     94 % 0.0 mm
19:42 6.9 °C 5.8 °C 1028.0 hPa Calm     93 % 0.0 mm
19:47 6.9 °C 6.0 °C 1028.3 hPa Calm     94 % 0.0 mm
19:52 6.9 °C 6.0 °C 1028.0 hPa Calm     94 % 0.0 mm
19:57 6.8 °C 5.7 °C 1028.0 hPa Calm     93 % 0.0 mm
20:02 6.6 °C 5.7 °C 1028.0 hPa Calm     94 % 0.0 mm
20:12 6.3 °C 5.3 °C 1028.3 hPa Calm   1.6 km/h 93 % 0.0 mm
20:22 6.1 °C 5.2 °C 1028.3 hPa Calm     94 % 0.0 mm
20:27 5.9 °C 5.0 °C 1028.3 hPa Calm     94 % 0.0 mm
20:32 5.8 °C 4.9 °C 1028.3 hPa Calm     94 % 0.0 mm
20:37 5.7 °C 5.0 °C 1028.3 hPa Calm   1.6 km/h 95 % 0.0 mm
20:42 5.8 °C 5.1 °C 1028.3 hPa Calm   1.6 km/h 95 % 0.0 mm
20:47 5.8 °C 5.1 °C 1028.3 hPa Calm     95 % 0.0 mm
20:52 5.7 °C 5.0 °C 1028.3 hPa Calm     95 % 0.0 mm
21:02 5.5 °C 4.8 °C 1028.7 hPa Calm     95 % 0.0 mm
21:07 5.4 °C 4.7 °C 1028.7 hPa Calm     95 % 0.0 mm
21:12 5.4 °C 4.7 °C 1028.3 hPa Calm     95 % 0.0 mm
21:17 5.3 °C 4.6 °C 1028.3 hPa Calm     95 % 0.0 mm
21:22 5.2 °C 4.5 °C 1028.3 hPa Calm     95 % 0.0 mm
21:27 5.1 °C 4.4 °C 1028.3 hPa Calm     95 % 0.0 mm
21:32 5.1 °C 4.5 °C 1028.3 hPa Calm     96 % 0.0 mm
21:37 4.9 °C 4.3 °C 1028.3 hPa Calm     96 % 0.0 mm
21:42 4.8 °C 4.1 °C 1028.7 hPa Calm     95 % 0.0 mm
21:47 4.9 °C 4.3 °C 1028.7 hPa Calm     96 % 0.0 mm
21:52 5.1 °C 4.5 °C 1028.7 hPa Calm     96 % 0.0 mm
21:57 5.1 °C 4.5 °C 1028.7 hPa Calm     96 % 0.0 mm
22:02 4.9 °C 4.3 °C 1029.0 hPa Calm     96 % 0.0 mm
22:07 4.9 °C 4.5 °C 1028.7 hPa Calm     97 % 0.0 mm
22:12 4.9 °C 4.3 °C 1029.0 hPa Calm     96 % 0.0 mm
22:17 4.9 °C 4.3 °C 1029.0 hPa Calm     96 % 0.0 mm
22:22 4.8 °C 4.2 °C 1028.7 hPa Calm     96 % 0.0 mm
22:27 4.8 °C 4.2 °C 1028.7 hPa Calm     96 % 0.0 mm
22:32 4.7 °C 4.1 °C 1028.7 hPa Calm     96 % 0.0 mm
22:37 4.6 °C 4.0 °C 1028.7 hPa Calm     96 % 0.0 mm
22:42 4.6 °C 4.2 °C 1029.0 hPa Calm     97 % 0.0 mm
22:47 4.6 °C 4.2 °C 1029.0 hPa Calm     97 % 0.0 mm
22:52 4.6 °C 4.2 °C 1029.0 hPa Calm     97 % 0.0 mm
22:57 4.5 °C 4.1 °C 1029.0 hPa Calm     97 % 0.0 mm
23:02 4.5 °C 4.1 °C 1029.0 hPa Calm     97 % 0.0 mm
23:07 4.5 °C 4.1 °C 1029.0 hPa Calm     97 % 0.0 mm
23:12 4.4 °C 4.0 °C 1029.0 hPa Calm     97 % 0.0 mm
23:17 4.4 °C 4.0 °C 1029.0 hPa Calm     97 % 0.0 mm
23:22 4.5 °C 4.1 °C 1029.3 hPa Calm     97 % 0.0 mm
23:27 4.4 °C 4.0 °C 1029.0 hPa Calm     97 % 0.0 mm
23:32 4.6 °C 4.2 °C 1029.0 hPa Calm     97 % 0.0 mm
23:37 4.7 °C 4.3 °C 1029.0 hPa Calm     97 % 0.0 mm
23:42 4.6 °C 4.2 °C 1029.3 hPa Calm     97 % 0.0 mm
23:47 4.4 °C 4.0 °C 1029.3 hPa Calm     97 % 0.0 mm
23:52 4.4 °C 4.0 °C 1029.3 hPa Calm     97 % 0.0 mm
23:57 4.3 °C 3.9 °C 1029.3 hPa Calm   1.6 km/h 97 % 0.0 mm
Meteo18
Compliments of Weather Underground - 4 mb

Script developed by  Jim McMurry - jmcmurry@mwt.net Adapted for the template by  Wim van der Kuil - Leuven-Template.eu

You find our weather info also at:

European Weather Network

Weather Underground

Equipment we use:

Weather-station
Davis Vue

Weather-program
Meteohub

Weather-server
Raspberry PI 2 B+

Provider
1 and 1

Davis Vue

Meteohub

Raspberry PI 2 B+

1 and 1